createdAt,value
2023-03-05T00:01:40.178Z,98821.44
2023-03-05T00:03:41.989Z,98818.72
2023-03-05T00:05:43.689Z,98820.59
2023-03-05T00:07:45.206Z,98823.13
2023-03-05T00:09:47.045Z,98824.59
2023-03-05T00:11:48.925Z,98821.88
2023-03-05T00:13:54.485Z,98826.47
2023-03-05T00:15:56.224Z,98826.47
2023-03-05T00:17:57.675Z,98834.88
2023-03-05T00:20:01.321Z,98833.19
2023-03-05T00:22:03.793Z,98828.84
2023-03-05T00:24:16.751Z,98824.47
2023-03-05T00:26:19.857Z,98832.38
2023-03-05T00:28:21.853Z,98840.53
2023-03-05T00:30:23.473Z,98833.44
2023-03-05T00:32:25.054Z,98829.69
2023-03-05T00:34:28.128Z,98826.13
2023-03-05T00:36:30.357Z,98828.84
2023-03-05T00:38:31.893Z,98829.44
2023-03-05T00:40:37.110Z,98826.72
2023-03-05T00:42:38.765Z,98827.75
2023-03-05T00:44:40.480Z,98825.06
2023-03-05T00:46:42.026Z,98819.88
2023-03-05T00:48:43.795Z,98821.97
2023-03-05T00:50:45.614Z,98825.06
2023-03-05T00:52:47.151Z,98822.34
2023-03-05T00:54:48.720Z,98815.28
2023-03-05T00:56:50.330Z,98819.63
2023-03-05T00:58:53.224Z,98821.53
2023-03-05T01:00:58.214Z,98815.28
2023-03-05T01:02:59.682Z,98815.47
2023-03-05T01:05:01.443Z,98815.47
2023-03-05T01:07:03.001Z,98811.72
2023-03-05T01:09:04.682Z,98812.75
2023-03-05T01:11:07.893Z,98807.34
2023-03-05T01:13:09.548Z,98802.16
2023-03-05T01:15:11.297Z,98803.00
2023-03-05T01:17:12.844Z,98799.69
2023-03-05T01:19:16.292Z,98801.56
2023-03-05T01:21:17.810Z,98794.47
2023-03-05T01:23:19.559Z,98787.75
2023-03-05T01:25:21.839Z,98792.34
2023-03-05T01:27:23.750Z,98790.25
2023-03-05T01:29:25.222Z,98791.31
2023-03-05T01:31:26.997Z,98786.47
2023-03-05T01:33:28.576Z,98781.28
2023-03-05T01:35:30.323Z,98792.97
2023-03-05T01:37:32.425Z,98783.16
2023-03-05T01:39:34.130Z,98780.44
2023-03-05T01:41:35.725Z,98783.59
2023-03-05T01:43:37.301Z,98781.50
2023-03-05T01:45:59.641Z,98782.31
2023-03-05T01:48:01.515Z,98775.47
2023-03-05T01:50:05.333Z,98786.13
2023-03-05T01:52:19.772Z,98767.13
2023-03-05T01:54:24.473Z,98778.78
2023-03-05T01:56:28.039Z,98764.63
2023-03-05T01:58:29.635Z,98771.91
2023-03-05T02:00:35.650Z,98774.44
2023-03-05T02:02:37.398Z,98769.22
2023-03-05T02:04:46.205Z,98772.53
2023-03-05T02:06:48.537Z,98764.41
2023-03-05T02:08:50.162Z,98765.22
2023-03-05T02:10:54.372Z,98767.31
2023-03-05T02:13:01.216Z,98765.69
2023-03-05T02:15:03.176Z,98763.78
2023-03-05T02:17:05.360Z,98755.63
2023-03-05T02:19:10.697Z,98755.88
2023-03-05T02:21:12.457Z,98749.63
2023-03-05T02:23:15.298Z,98754.84
2023-03-05T02:25:23.128Z,98751.28
2023-03-05T02:27:34.823Z,98742.31
2023-03-05T02:29:41.193Z,98748.78
2023-03-05T02:31:43.034Z,98737.94
2023-03-05T02:33:45.230Z,98737.94
2023-03-05T02:35:47.436Z,98743.16
2023-03-05T02:37:49.822Z,98727.91
2023-03-05T02:39:51.980Z,98731.47
2023-03-05T02:41:53.912Z,98720.59
2023-03-05T02:43:55.444Z,98713.50
2023-03-05T02:45:57.278Z,98709.75
2023-03-05T02:47:59.114Z,98712.69
2023-03-05T02:50:00.969Z,98716.22
2023-03-05T02:52:03.807Z,98719.19
2023-03-05T02:54:05.391Z,98724.38
2023-03-05T02:56:07.241Z,98722.50
2023-03-05T02:58:10.284Z,98716.69
2023-03-05T03:00:12.473Z,98714.22
2023-03-05T03:02:14.918Z,98719.38
2023-03-05T03:04:16.421Z,98721.06
2023-03-05T03:06:18.097Z,98712.91
2023-03-05T03:08:19.659Z,98709.63
2023-03-05T03:10:21.396Z,98705.81
2023-03-05T03:12:23.161Z,98705.25
2023-03-05T03:14:24.720Z,98704.66
2023-03-05T03:16:26.332Z,98702.75
2023-03-05T03:18:27.892Z,98699.47
2023-03-05T03:20:29.339Z,98702.38
2023-03-05T03:22:30.989Z,98694.25
2023-03-05T03:24:33.872Z,98689.66
2023-03-05T03:26:35.552Z,98694.25
2023-03-05T03:28:37.009Z,98687.97
2023-03-05T03:30:38.656Z,98689.91
2023-03-05T03:32:40.292Z,98686.34
2023-03-05T03:34:41.842Z,98685.50
2023-03-05T03:36:45.029Z,98676.78
2023-03-05T03:38:46.600Z,98674.28
2023-03-05T03:40:48.119Z,98680.53
2023-03-05T03:42:54.412Z,98678.66
2023-03-05T03:44:55.935Z,98674.53
2023-03-05T03:46:57.671Z,98675.34
2023-03-05T03:48:59.206Z,98678.66
2023-03-05T03:51:04.323Z,98671.22
2023-03-05T03:53:06.215Z,98674.97
2023-03-05T03:55:08.253Z,98674.97
2023-03-05T03:57:09.841Z,98678.75
2023-03-05T03:59:11.855Z,98672.50
2023-03-05T04:01:13.452Z,98673.34
2023-03-05T04:03:14.958Z,98676.25
2023-03-05T04:05:16.737Z,98672.13
2023-03-05T04:07:18.775Z,98670.47
2023-03-05T04:09:20.286Z,98670.47
2023-03-05T04:11:21.996Z,98674.22
2023-03-05T04:13:23.597Z,98673.19
2023-03-05T04:15:25.131Z,98676.94
2023-03-05T04:17:26.635Z,98669.84
2023-03-05T04:19:30.587Z,98659.25
2023-03-05T04:21:32.278Z,98666.34
2023-03-05T04:23:34.058Z,98669.25
2023-03-05T04:25:35.495Z,98662.19
2023-03-05T04:27:37.996Z,98659.50
2023-03-05T04:29:39.677Z,98657.81
2023-03-05T04:31:41.304Z,98658.06
2023-03-05T04:33:42.820Z,98654.50
2023-03-05T04:35:44.845Z,98658.28
2023-03-05T04:37:47.308Z,98653.44
2023-03-05T04:39:48.823Z,98643.66
2023-03-05T04:41:50.427Z,98647.44
2023-03-05T04:43:51.902Z,98644.72
2023-03-05T04:45:55.373Z,98644.13
2023-03-05T04:47:57.810Z,98638.69
2023-03-05T04:49:59.345Z,98645.78
2023-03-05T04:52:00.945Z,98645.78
2023-03-05T04:54:02.485Z,98636.81
2023-03-05T04:56:05.667Z,98642.44
2023-03-05T04:58:07.763Z,98635.41
2023-03-05T05:00:14.417Z,98631.84
2023-03-05T05:02:16.008Z,98634.31
2023-03-05T05:04:17.555Z,98627.47
2023-03-05T05:06:19.183Z,98628.31
2023-03-05T05:08:20.647Z,98629.38
2023-03-05T05:10:22.365Z,98628.75
2023-03-05T05:12:24.149Z,98636.88
2023-03-05T05:14:25.815Z,98631.25
2023-03-05T05:16:27.452Z,98625.84
2023-03-05T05:18:28.982Z,98631.47
2023-03-05T05:20:30.562Z,98630.44
2023-03-05T05:22:32.464Z,98633.13
2023-03-05T05:24:33.993Z,98623.13
2023-03-05T05:26:35.728Z,98636.88
2023-03-05T05:28:38.399Z,98633.38
2023-03-05T05:30:40.285Z,98631.72
2023-03-05T05:32:42.028Z,98636.88
2023-03-05T05:34:43.855Z,98625.44
2023-03-05T05:36:45.459Z,98626.28
2023-03-05T05:38:46.961Z,98636.09
2023-03-05T05:40:48.495Z,98625.69
2023-03-05T05:42:50.157Z,98625.69
2023-03-05T05:44:51.822Z,98622.75
2023-03-05T05:46:53.476Z,98626.72
2023-03-05T05:48:54.997Z,98624.84
2023-03-05T05:50:56.957Z,98626.97
2023-03-05T05:52:58.500Z,98629.44
2023-03-05T05:55:00.032Z,98630.28
2023-03-05T05:57:01.744Z,98628.59
2023-03-05T05:59:03.274Z,98630.72
2023-03-05T06:01:22.816Z,98633.69
2023-03-05T06:03:24.411Z,98633.44
2023-03-05T06:05:26.120Z,98632.59
2023-03-05T06:07:27.694Z,98639.94
2023-03-05T06:09:29.495Z,98633.44
2023-03-05T06:11:30.978Z,98633.44
2023-03-05T06:13:33.264Z,98632.41
2023-03-05T06:15:34.820Z,98635.09
2023-03-05T06:17:36.478Z,98634.50
2023-03-05T06:19:38.388Z,98634.50
2023-03-05T06:21:40.604Z,98631.19
2023-03-05T06:23:43.048Z,98632.25
2023-03-05T06:25:44.569Z,98634.13
2023-03-05T06:27:46.208Z,98636.00
2023-03-05T06:29:47.776Z,98631.66
2023-03-05T06:31:49.480Z,98627.88
2023-03-05T06:33:52.649Z,98627.88
2023-03-05T06:35:54.193Z,98629.53
2023-03-05T06:37:55.796Z,98629.53
2023-03-05T06:39:57.298Z,98632.00
2023-03-05T06:41:58.915Z,98632.00
2023-03-05T06:44:02.408Z,98629.09
2023-03-05T06:46:07.296Z,98630.38
2023-03-05T06:48:09.006Z,98630.13
2023-03-05T06:50:11.271Z,98625.75
2023-03-05T06:52:12.930Z,98630.38
2023-03-05T06:54:16.936Z,98629.53
2023-03-05T06:56:19.708Z,98629.09
2023-03-05T06:58:21.750Z,98628.00
2023-03-05T07:00:24.377Z,98628.00
2023-03-05T07:02:26.256Z,98621.56
2023-03-05T07:04:27.864Z,98633.81
2023-03-05T07:06:32.469Z,98630.28
2023-03-05T07:08:34.292Z,98628.16
2023-03-05T07:10:40.652Z,98628.16
2023-03-05T07:12:43.557Z,98626.53
2023-03-05T07:14:45.283Z,98627.13
2023-03-05T07:16:46.905Z,98631.72
2023-03-05T07:18:49.095Z,98636.69
2023-03-05T07:20:50.673Z,98638.94
2023-03-05T07:22:52.247Z,98632.22
2023-03-05T07:24:53.773Z,98640.13
2023-03-05T07:26:57.444Z,98632.59
2023-03-05T07:28:59.916Z,98630.72
2023-03-05T07:31:07.896Z,98633.81
2023-03-05T07:33:09.574Z,98633.81
2023-03-05T07:35:11.053Z,98627.09
2023-03-05T07:37:13.780Z,98630.59
2023-03-05T07:39:15.466Z,98621.19
2023-03-05T07:41:19.830Z,98626.16
2023-03-05T07:43:21.537Z,98616.97
2023-03-05T07:45:24.134Z,98620.03
2023-03-05T07:47:25.840Z,98617.09
2023-03-05T07:49:27.458Z,98617.69
2023-03-05T07:51:29.485Z,98615.56
2023-03-05T07:53:31.239Z,98612.41
2023-03-05T07:55:32.986Z,98615.94
2023-03-05T07:57:38.028Z,98617.38
2023-03-05T07:59:39.745Z,98614.66
2023-03-05T08:01:41.652Z,98609.69
2023-03-05T08:03:44.137Z,98615.72
2023-03-05T08:05:45.777Z,98617.72
2023-03-05T08:07:47.307Z,98625.41
2023-03-05T08:09:48.872Z,98619.78
2023-03-05T08:11:50.708Z,98623.91
2023-03-05T08:13:52.882Z,98618.69
2023-03-05T08:15:54.515Z,98614.94
2023-03-05T08:17:56.177Z,98616.34
2023-03-05T08:20:00.241Z,98611.53
2023-03-05T08:22:01.818Z,98613.19
2023-03-05T08:24:06.098Z,98616.50
2023-03-05T08:26:23.021Z,98614.38
2023-03-05T08:28:24.552Z,98612.25
2023-03-05T08:30:28.729Z,98613.91
2023-03-05T08:32:30.693Z,98617.44
2023-03-05T08:34:32.297Z,98610.34
2023-03-05T08:36:33.911Z,98615.56
2023-03-05T08:38:36.570Z,98612.63
2023-03-05T08:40:38.217Z,98608.84
2023-03-05T08:42:39.740Z,98607.44
2023-03-05T08:44:41.370Z,98608.84
2023-03-05T08:46:43.333Z,98606.94
2023-03-05T08:48:44.979Z,98606.72
2023-03-05T08:50:47.225Z,98603.19
2023-03-05T08:52:49.147Z,98605.66
2023-03-05T08:54:50.854Z,98608.34
2023-03-05T08:56:52.407Z,98605.66
2023-03-05T08:58:54.471Z,98601.88
2023-03-05T09:00:56.505Z,98602.72
2023-03-05T09:02:58.058Z,98600.00
2023-03-05T09:04:59.771Z,98600.84
2023-03-05T09:07:01.269Z,98595.41
2023-03-05T09:09:02.837Z,98600.59
2023-03-05T09:11:06.563Z,98606.84
2023-03-05T09:13:08.921Z,98593.28
2023-03-05T09:15:11.771Z,98585.34
2023-03-05T09:17:13.317Z,98586.19
2023-03-05T09:19:15.211Z,98591.63
2023-03-05T09:21:17.900Z,98584.88
2023-03-05T09:23:19.609Z,98583.84
2023-03-05T09:25:21.768Z,98586.91
2023-03-05T09:27:23.857Z,98580.41
2023-03-05T09:29:26.713Z,98589.16
2023-03-05T09:31:28.527Z,98579.38
2023-03-05T09:33:31.707Z,98580.78
2023-03-05T09:35:37.661Z,98572.66
2023-03-05T09:37:39.325Z,98579.72
2023-03-05T09:39:40.957Z,98572.16
2023-03-05T09:42:00.585Z,98567.81
2023-03-05T09:44:24.723Z,98573.56
2023-03-05T09:46:52.547Z,98570.84
2023-03-05T09:49:12.304Z,98564.38
2023-03-05T09:51:29.289Z,98572.06
2023-03-05T09:53:50.467Z,98571.59
2023-03-05T09:55:57.915Z,98562.75
2023-03-05T09:58:06.770Z,98559.56
2023-03-05T10:00:26.151Z,98563.09
2023-03-05T10:02:36.516Z,98561.00
2023-03-05T10:05:03.412Z,98558.41
2023-03-05T10:07:15.518Z,98560.88
2023-03-05T10:09:22.637Z,98555.78
2023-03-05T10:11:38.257Z,98560.72
2023-03-05T10:13:45.550Z,98553.78
2023-03-05T10:16:22.543Z,98553.06
2023-03-05T10:18:36.356Z,98551.88
2023-03-05T10:20:43.963Z,98545.72
2023-03-05T10:23:05.099Z,98540.63
2023-03-05T10:25:09.632Z,98547.22
2023-03-05T10:27:20.251Z,98539.91
2023-03-05T10:29:46.613Z,98550.88
2023-03-05T10:32:05.525Z,98539.28
2023-03-05T10:34:21.124Z,98539.66
2023-03-05T10:36:51.225Z,98547.31
2023-03-05T10:39:39.701Z,98539.75
2023-03-05T10:42:02.707Z,98536.78
2023-03-05T10:44:16.624Z,98534.63
2023-03-05T10:46:22.791Z,98525.41
2023-03-05T10:48:47.241Z,98521.66
2023-03-05T10:50:54.828Z,98517.00
2023-03-05T10:53:27.996Z,98520.56
2023-03-05T10:55:29.834Z,98523.88
2023-03-05T10:57:32.196Z,98521.41
2023-03-05T10:59:33.943Z,98513.81
2023-03-05T11:01:37.435Z,98517.38
2023-03-05T11:04:06.475Z,98507.56
2023-03-05T11:06:12.813Z,98507.91
2023-03-05T11:08:35.239Z,98505.66
2023-03-05T11:10:37.008Z,98495.97
2023-03-05T11:12:39.387Z,98482.13
2023-03-05T11:15:07.345Z,98490.84
2023-03-05T11:17:38.881Z,98479.97
2023-03-05T11:19:41.584Z,98472.75
2023-03-05T11:21:44.611Z,98474.72
2023-03-05T11:24:06.007Z,98463.63
2023-03-05T11:26:13.395Z,98468.31
2023-03-05T11:28:32.033Z,98460.25
2023-03-05T11:30:36.181Z,98458.75
2023-03-05T11:32:38.428Z,98451.53
2023-03-05T11:34:40.284Z,98453.50
2023-03-05T11:36:43.922Z,98452.53
2023-03-05T11:38:55.837Z,98446.09
2023-03-05T11:40:57.422Z,98439.66
2023-03-05T11:43:01.259Z,98442.44
2023-03-05T11:45:04.176Z,98433.53
2023-03-05T11:47:29.807Z,98440.16
2023-03-05T11:49:34.819Z,98435.59
2023-03-05T11:51:44.493Z,98433.19
2023-03-05T11:53:51.504Z,98420.97
2023-03-05T11:55:59.357Z,98420.00
2023-03-05T11:58:07.666Z,98422.22
2023-03-05T12:00:15.314Z,98416.84
2023-03-05T12:02:20.766Z,98419.66
2023-03-05T12:04:23.469Z,98419.97
2023-03-05T12:07:03.805Z,98424.91
2023-03-05T12:09:33.902Z,98415.41
2023-03-05T12:11:36.786Z,98426.03
2023-03-05T12:13:45.429Z,98420.94
2023-03-05T12:16:06.863Z,98413.81
2023-03-05T12:18:28.956Z,98414.41
2023-03-05T12:20:45.669Z,98408.16
2023-03-05T12:22:47.450Z,98405.16
2023-03-05T12:24:50.205Z,98402.44
2023-03-05T12:27:03.949Z,98392.63
2023-03-05T12:29:05.565Z,98392.63
2023-03-05T12:31:10.192Z,98392.63
2023-03-05T12:33:39.421Z,98397.47
2023-03-05T12:35:41.350Z,98380.06
2023-03-05T12:37:43.011Z,98386.59
2023-03-05T12:39:44.386Z,98369.44
2023-03-05T12:41:46.260Z,98369.69
2023-03-05T12:44:06.429Z,98369.94
2023-03-05T12:46:29.353Z,98379.44
2023-03-05T12:48:31.371Z,98367.16
2023-03-05T12:50:39.451Z,98369.31
2023-03-05T12:52:45.866Z,98367.16
2023-03-05T12:55:03.589Z,98363.03
2023-03-05T12:57:18.895Z,98360.53
2023-03-05T12:59:23.921Z,98360.53
2023-03-05T13:01:43.047Z,98348.25
2023-03-05T13:03:45.127Z,98350.97
2023-03-05T13:05:56.778Z,98345.31
2023-03-05T13:08:16.340Z,98346.84
2023-03-05T13:10:29.772Z,98349.56
2023-03-05T13:12:32.300Z,98343.88
2023-03-05T13:14:43.512Z,98338.66
2023-03-05T13:16:45.222Z,98336.78
2023-03-05T13:18:51.183Z,98343.03
2023-03-05T13:21:05.367Z,98338.94
2023-03-05T13:23:18.831Z,98343.31
2023-03-05T13:25:20.942Z,98334.03
2023-03-05T13:27:30.938Z,98344.94
2023-03-05T13:29:32.473Z,98337.59
2023-03-05T13:31:36.381Z,98335.47
2023-03-05T13:33:38.032Z,98330.84
2023-03-05T13:35:47.440Z,98332.97
2023-03-05T13:37:49.768Z,98325.63
2023-03-05T13:39:57.857Z,98327.78
2023-03-05T13:42:07.295Z,98325.03
2023-03-05T13:44:20.747Z,98331.31
2023-03-05T13:46:24.599Z,98310.63
2023-03-05T13:48:28.310Z,98320.69
2023-03-05T13:50:38.661Z,98314.16
2023-03-05T13:52:40.410Z,98316.06
2023-03-05T13:54:42.381Z,98312.53
2023-03-05T13:56:58.096Z,98310.63
2023-03-05T13:58:59.723Z,98305.19
2023-03-05T14:01:15.898Z,98303.19
2023-03-05T14:03:20.670Z,98311.13
2023-03-05T14:05:22.536Z,98302.69
2023-03-05T14:07:40.800Z,98297.97
2023-03-05T14:09:47.530Z,98297.66
2023-03-05T14:11:55.400Z,98298.72
2023-03-05T14:14:05.550Z,98289.16
2023-03-05T14:16:25.101Z,98286.69
2023-03-05T14:18:32.981Z,98277.69
2023-03-05T14:20:34.677Z,98279.34
2023-03-05T14:22:39.096Z,98280.41
2023-03-05T14:24:52.895Z,98280.69
2023-03-05T14:26:57.152Z,98276.03
2023-03-05T14:28:59.020Z,98268.13
2023-03-05T14:31:00.747Z,98275.22
2023-03-05T14:33:03.447Z,98271.69
2023-03-05T14:35:06.526Z,98272.50
2023-03-05T14:37:22.061Z,98270.84
2023-03-05T14:39:50.678Z,98264.56
2023-03-05T14:41:52.296Z,98268.13
2023-03-05T14:43:53.872Z,98261.03
2023-03-05T14:45:55.489Z,98261.28
2023-03-05T14:48:00.386Z,98255.00
2023-03-05T14:50:02.141Z,98261.28
2023-03-05T14:52:03.897Z,98257.75
2023-03-05T14:54:05.967Z,98249.84
2023-03-05T14:56:18.330Z,98248.19
2023-03-05T14:58:22.141Z,98242.72
2023-03-05T15:00:28.932Z,98242.16
2023-03-05T15:02:30.711Z,98235.91
2023-03-05T15:04:32.346Z,98232.06
2023-03-05T15:06:38.006Z,98232.88
2023-03-05T15:08:39.984Z,98233.13
2023-03-05T15:10:41.776Z,98230.66
2023-03-05T15:12:44.277Z,98231.72
2023-03-05T15:14:45.985Z,98224.31
2023-03-05T15:16:48.764Z,98221.03
2023-03-05T15:18:50.544Z,98218.00
2023-03-05T15:20:52.972Z,98217.69
2023-03-05T15:22:55.025Z,98221.75
2023-03-05T15:24:56.614Z,98210.03
2023-03-05T15:26:58.140Z,98210.28
2023-03-05T15:29:00.306Z,98206.75
2023-03-05T15:31:03.398Z,98203.16
2023-03-05T15:33:07.940Z,98199.88
2023-03-05T15:35:10.090Z,98194.66
2023-03-05T15:37:11.969Z,98193.25
2023-03-05T15:39:13.622Z,98190.25
2023-03-05T15:41:16.355Z,98183.41
2023-03-05T15:43:19.271Z,98186.38
2023-03-05T15:45:21.181Z,98177.09
2023-03-05T15:47:22.717Z,98177.31
2023-03-05T15:49:25.971Z,98172.41
2023-03-05T15:51:27.625Z,98164.47
2023-03-05T15:53:29.318Z,98167.19
2023-03-05T15:55:30.845Z,98164.47
2023-03-05T15:57:51.189Z,98179.69
2023-03-05T15:59:53.728Z,98167.69
2023-03-05T16:01:55.524Z,98169.84
2023-03-05T16:03:57.237Z,98172.00
2023-03-05T16:05:58.898Z,98162.19
2023-03-05T16:08:01.051Z,98163.28
2023-03-05T16:10:03.315Z,98152.91
2023-03-05T16:12:10.028Z,98163.22
2023-03-05T16:14:11.749Z,98167.56
2023-03-05T16:16:13.398Z,98159.94
2023-03-05T16:18:16.387Z,98161.00
2023-03-05T16:20:18.252Z,98164.78
2023-03-05T16:22:19.994Z,98161.78
2023-03-05T16:24:21.689Z,98158.22
2023-03-05T16:26:23.332Z,98156.34
2023-03-05T16:28:25.085Z,98155.50
2023-03-05T16:30:26.747Z,98156.56
2023-03-05T16:32:28.330Z,98153.84
2023-03-05T16:34:32.396Z,98146.50
2023-03-05T16:36:35.602Z,98156.81
2023-03-05T16:38:38.023Z,98154.38
2023-03-05T16:41:06.328Z,98145.94
2023-03-05T16:43:01.114Z,98145.38
2023-03-05T16:45:03.879Z,98140.44
2023-03-05T16:47:07.389Z,98146.16
2023-03-05T16:49:09.290Z,98141.22
2023-03-05T16:51:11.890Z,98137.31
2023-03-05T16:53:13.735Z,98140.56
2023-03-05T16:55:15.500Z,98129.69
2023-03-05T16:57:17.609Z,98131.81
2023-03-05T16:59:19.724Z,98131.00
2023-03-05T17:01:22.804Z,98125.81
2023-03-05T17:03:24.601Z,98120.38
2023-03-05T17:05:28.234Z,98121.22
2023-03-05T17:07:29.815Z,98114.38
2023-03-05T17:09:31.512Z,98116.53
2023-03-05T17:11:33.152Z,98116.53
2023-03-05T17:13:35.350Z,98117.03
2023-03-05T17:15:37.170Z,98111.59
2023-03-05T17:17:39.469Z,98115.38
2023-03-05T17:19:41.259Z,98118.09
2023-03-05T17:21:43.738Z,98124.63
2023-03-05T17:23:45.428Z,98121.66
2023-03-05T17:25:47.066Z,98122.97
2023-03-05T17:27:48.712Z,98119.19
2023-03-05T17:29:50.336Z,98124.34
2023-03-05T17:31:53.420Z,98121.66
2023-03-05T17:33:55.989Z,98126.50
2023-03-05T17:35:58.144Z,98115.88
2023-03-05T17:38:03.094Z,98125.41
2023-03-05T17:40:05.281Z,98119.19
2023-03-05T17:42:07.011Z,98126.25
2023-03-05T17:44:08.700Z,98125.19
2023-03-05T17:46:11.036Z,98122.47
2023-03-05T17:48:13.862Z,98127.91
2023-03-05T17:50:15.573Z,98125.41
2023-03-05T17:52:21.213Z,98127.34
2023-03-05T17:54:23.106Z,98131.13
2023-03-05T17:56:26.671Z,98128.41
2023-03-05T17:58:28.566Z,98134.91
2023-03-05T18:00:31.024Z,98134.66
2023-03-05T18:02:33.454Z,98128.41
2023-03-05T18:04:35.329Z,98132.19
2023-03-05T18:06:37.264Z,98131.13
2023-03-05T18:08:39.359Z,98128.41
2023-03-05T18:10:40.990Z,98127.34
2023-03-05T18:12:42.771Z,98130.06
2023-03-05T18:14:44.558Z,98124.84
2023-03-05T18:16:46.309Z,98128.41
2023-03-05T18:18:47.933Z,98125.69
2023-03-05T18:20:49.673Z,98128.66
2023-03-05T18:22:51.637Z,98133.28
2023-03-05T18:24:53.311Z,98124.78
2023-03-05T18:26:54.860Z,98125.06
2023-03-05T18:28:56.410Z,98126.09
2023-03-05T18:30:58.145Z,98121.50
2023-03-05T18:33:00.114Z,98122.34
2023-03-05T18:35:01.811Z,98120.69
2023-03-05T18:37:03.404Z,98120.69
2023-03-05T18:39:05.193Z,98124.47
2023-03-05T18:41:08.029Z,98118.53
2023-03-05T18:43:09.755Z,98108.47
2023-03-05T18:45:14.664Z,98114.75
2023-03-05T18:47:16.223Z,98112.59
2023-03-05T18:49:17.819Z,98111.53
2023-03-05T18:51:21.724Z,98116.13
2023-03-05T18:53:23.467Z,98108.81
2023-03-05T18:55:28.151Z,98106.09
2023-03-05T18:57:29.811Z,98111.53
2023-03-05T18:59:31.803Z,98105.25
2023-03-05T19:01:33.492Z,98108.81
2023-03-05T19:03:35.618Z,98106.94
2023-03-05T19:05:38.403Z,98105.00
2023-03-05T19:07:40.594Z,98097.13
2023-03-05T19:09:54.950Z,98097.13
2023-03-05T19:11:56.903Z,98099.00
2023-03-05T19:13:58.543Z,98100.66
2023-03-05T19:16:02.456Z,98098.19
2023-03-05T19:18:04.186Z,98103.88
2023-03-05T19:20:07.681Z,98094.91
2023-03-05T19:22:11.985Z,98094.59
2023-03-05T19:24:14.659Z,98091.28
2023-03-05T19:26:16.359Z,98087.16
2023-03-05T19:28:17.911Z,98087.44
2023-03-05T19:30:19.902Z,98086.03
2023-03-05T19:32:21.985Z,98082.19
2023-03-05T19:34:23.733Z,98078.88
2023-03-05T19:36:25.469Z,98082.91
2023-03-05T19:38:27.584Z,98085.34
2023-03-05T19:40:29.947Z,98082.03
2023-03-05T19:42:31.769Z,98084.16
2023-03-05T19:44:33.652Z,98082.78
2023-03-05T19:46:35.430Z,98079.75
2023-03-05T19:48:38.256Z,98086.50
2023-03-05T19:50:40.289Z,98087.25
2023-03-05T19:52:41.905Z,98085.03
2023-03-05T19:54:43.573Z,98086.34
2023-03-05T19:56:47.401Z,98084.69
2023-03-05T19:58:49.270Z,98077.03
2023-03-05T20:00:50.950Z,98082.16
2023-03-05T20:02:52.613Z,98078.03
2023-03-05T20:04:55.409Z,98075.53
2023-03-05T20:06:57.807Z,98075.78
2023-03-05T20:08:59.812Z,98067.91
2023-03-05T20:11:02.571Z,98071.69
2023-03-05T20:13:04.170Z,98065.41
2023-03-05T20:15:06.361Z,98062.72
2023-03-05T20:17:08.001Z,98063.19
2023-03-05T20:19:16.808Z,98055.31
2023-03-05T20:21:23.326Z,98052.84
2023-03-05T20:23:24.888Z,98059.34
2023-03-05T20:25:26.554Z,98054.97
2023-03-05T20:27:28.205Z,98050.63
2023-03-05T20:29:29.827Z,98056.56
2023-03-05T20:31:37.120Z,98057.38
2023-03-05T20:33:39.209Z,98060.84
2023-03-05T20:35:41.125Z,98061.91
2023-03-05T20:37:49.977Z,98062.72
2023-03-05T20:39:52.903Z,98061.81
2023-03-05T20:41:54.484Z,98058.84
2023-03-05T20:44:00.211Z,98064.53
2023-03-05T20:46:07.539Z,98061.81
2023-03-05T20:50:44.008Z,98064.44
2023-03-05T20:52:45.668Z,98057.63
2023-03-05T20:54:47.942Z,98059.75
2023-03-05T20:56:49.649Z,98063.31
2023-03-05T20:58:51.427Z,98047.81
2023-03-05T21:00:53.296Z,98048.06
2023-03-05T21:02:56.244Z,98049.66
2023-03-05T21:04:57.770Z,98048.00
2023-03-05T21:06:59.485Z,98038.81
2023-03-05T21:09:01.461Z,98041.50
2023-03-05T21:11:10.261Z,98044.13
2023-03-05T21:13:11.864Z,98031.38
2023-03-05T21:15:15.740Z,98033.28
2023-03-05T21:17:17.978Z,98032.69
2023-03-05T21:19:19.571Z,98032.69
2023-03-05T21:21:21.367Z,98031.06
2023-03-05T21:23:22.989Z,98031.28
2023-03-05T21:25:27.688Z,98028.84
2023-03-05T21:27:29.420Z,98018.47
2023-03-05T21:29:30.956Z,98021.19
2023-03-05T21:31:32.777Z,98012.47
2023-03-05T21:33:34.773Z,98014.94
2023-03-05T21:35:37.665Z,98019.53
2023-03-05T21:37:42.503Z,98012.47
2023-03-05T21:39:44.281Z,98015.41
2023-03-05T21:41:47.307Z,98006.72
2023-03-05T21:43:48.993Z,98010.50
2023-03-05T21:45:53.610Z,98002.59
2023-03-05T21:47:56.311Z,98001.78
2023-03-05T21:49:57.975Z,97999.31
2023-03-05T21:52:12.343Z,97998.25
2023-03-05T21:54:14.005Z,98002.28
2023-03-05T21:56:16.804Z,97994.16
2023-03-05T21:58:18.529Z,97991.44
2023-03-05T22:00:23.199Z,97994.38
2023-03-05T22:02:25.728Z,97985.41
2023-03-05T22:04:27.604Z,97985.66
2023-03-05T22:06:29.233Z,97982.38
2023-03-05T22:08:31.594Z,97983.44
2023-03-05T22:10:33.171Z,97975.56
2023-03-05T22:12:52.981Z,97977.44
2023-03-05T22:14:55.888Z,97972.50
2023-03-05T22:17:02.132Z,97971.94
2023-03-05T22:19:05.391Z,97971.38
2023-03-05T22:21:17.136Z,97962.66
2023-03-05T22:23:22.497Z,97970.53
2023-03-05T22:25:24.649Z,97964.28
2023-03-05T22:27:26.161Z,97973.50
2023-03-05T22:29:28.577Z,97960.19
2023-03-05T22:31:30.571Z,97968.09
2023-03-05T22:33:32.491Z,97964.28
2023-03-05T22:35:34.257Z,97961.00
2023-03-05T22:37:35.829Z,97956.06
2023-03-05T22:39:37.569Z,97952.31
2023-03-05T22:41:40.899Z,97951.22
2023-03-05T22:43:42.820Z,97953.38
2023-03-05T22:45:44.863Z,97948.19
2023-03-05T22:47:48.420Z,97942.78
2023-03-05T22:49:49.993Z,97943.59
2023-03-05T22:51:51.616Z,97942.78
2023-03-05T22:53:53.186Z,97937.59
2023-03-05T22:55:54.856Z,97934.88
2023-03-05T22:57:56.482Z,97935.97
2023-03-05T22:59:58.181Z,97934.56
2023-03-05T23:01:59.798Z,97926.66
2023-03-05T23:04:08.058Z,97918.78
2023-03-05T23:06:10.454Z,97925.84
2023-03-05T23:08:12.019Z,97917.94
2023-03-05T23:10:20.553Z,97923.16
2023-03-05T23:12:24.941Z,97916.06
2023-03-05T23:14:26.539Z,97909.25
2023-03-05T23:16:28.256Z,97918.78
2023-03-05T23:18:29.746Z,97910.91
2023-03-05T23:20:34.778Z,97907.94
2023-03-05T23:22:37.074Z,97905.50
2023-03-05T23:24:39.256Z,97907.59
2023-03-05T23:26:40.970Z,97898.91
2023-03-05T23:28:42.411Z,97904.31
2023-03-05T23:30:44.307Z,97896.75
2023-03-05T23:32:58.375Z,97896.44
2023-03-05T23:34:59.923Z,97896.44
2023-03-05T23:37:01.460Z,97891.03
2023-03-05T23:39:03.029Z,97895.63
2023-03-05T23:41:08.732Z,97885.84
2023-03-05T23:43:11.847Z,97881.00
2023-03-05T23:45:15.065Z,97893.97
2023-03-05T23:47:17.418Z,97883.13
2023-03-05T23:49:19.000Z,97886.09
2023-03-05T23:51:20.603Z,97884.22
2023-03-05T23:53:28.847Z,97882.56
2023-03-05T23:55:34.210Z,97872.78
2023-03-05T23:57:36.324Z,97883.38
2023-03-05T23:59:38.104Z,97874.41
